createdAt,value
2022-11-16T00:01:03.512Z,16.00
2022-11-16T00:03:32.174Z,16.35
2022-11-16T00:06:01.847Z,14.90
2022-11-16T00:08:31.033Z,15.82
2022-11-16T00:11:10.530Z,15.43
2022-11-16T00:13:38.851Z,15.90
2022-11-16T00:16:07.640Z,15.40
2022-11-16T00:18:35.345Z,15.53
2022-11-16T00:21:06.312Z,14.80
2022-11-16T00:23:38.450Z,14.55
2022-11-16T00:26:07.162Z,15.02
2022-11-16T00:28:35.719Z,16.67
2022-11-16T00:31:05.097Z,15.33
2022-11-16T00:33:33.050Z,15.70
2022-11-16T00:36:11.340Z,15.80
2022-11-16T00:38:39.398Z,15.18
2022-11-16T00:41:08.427Z,15.40
2022-11-16T00:43:36.437Z,15.37
2022-11-16T00:46:04.381Z,14.05
2022-11-16T00:48:32.568Z,14.75
2022-11-16T00:51:00.279Z,13.35
2022-11-16T00:53:27.934Z,13.85
2022-11-16T00:55:57.806Z,13.37
2022-11-16T00:58:25.341Z,14.77
2022-11-16T01:00:54.039Z,15.32
2022-11-16T01:03:24.688Z,14.43
2022-11-16T01:05:52.234Z,14.18
2022-11-16T01:08:19.963Z,14.63
2022-11-16T01:10:47.752Z,14.32
2022-11-16T01:13:15.197Z,14.55
2022-11-16T01:15:48.032Z,15.40
2022-11-16T01:18:15.786Z,15.30
2022-11-16T01:20:43.276Z,15.43
2022-11-16T01:23:10.903Z,15.38
2022-11-16T01:25:38.676Z,14.55
2022-11-16T01:28:06.111Z,16.25
2022-11-16T01:30:34.894Z,15.60
2022-11-16T01:33:03.205Z,14.93
2022-11-16T01:35:30.713Z,16.37
2022-11-16T01:37:58.375Z,16.92
2022-11-16T01:40:27.954Z,16.20
2022-11-16T01:42:55.439Z,16.37
2022-11-16T01:45:30.555Z,14.97
2022-11-16T01:47:59.290Z,16.25
2022-11-16T01:50:27.267Z,16.42
2022-11-16T01:52:59.033Z,16.00
2022-11-16T01:55:28.446Z,15.52
2022-11-16T01:57:57.125Z,15.53
2022-11-16T02:00:24.742Z,14.77
2022-11-16T02:02:53.522Z,15.55
2022-11-16T02:05:31.205Z,14.45
2022-11-16T02:08:49.072Z,14.77
2022-11-16T02:12:04.601Z,14.40
2022-11-16T02:14:53.661Z,13.23
2022-11-16T02:17:35.541Z,15.07
2022-11-16T02:20:10.679Z,12.57
2022-11-16T02:23:03.136Z,13.62
2022-11-16T02:25:46.710Z,13.90
2022-11-16T02:28:39.067Z,13.02
2022-11-16T02:31:10.889Z,12.98
2022-11-16T02:33:41.176Z,12.27
2022-11-16T02:36:11.830Z,12.80
2022-11-16T02:38:41.334Z,12.53
2022-11-16T02:41:12.142Z,12.43
2022-11-16T02:43:55.626Z,13.85
2022-11-16T02:46:29.984Z,12.43
2022-11-16T02:49:00.948Z,13.20
2022-11-16T02:51:29.163Z,12.80
2022-11-16T02:54:15.141Z,13.38
2022-11-16T02:56:54.257Z,13.70
2022-11-16T02:59:25.750Z,13.65
2022-11-16T03:02:34.015Z,13.50
2022-11-16T03:05:09.468Z,13.13
2022-11-16T03:07:45.537Z,13.10
2022-11-16T03:10:34.652Z,15.05
2022-11-16T03:13:06.052Z,13.00
2022-11-16T03:15:36.829Z,14.65
2022-11-16T03:18:06.449Z,13.17
2022-11-16T03:20:35.826Z,14.60
2022-11-16T03:23:06.604Z,13.70
2022-11-16T03:25:39.609Z,13.25
2022-11-16T03:28:14.799Z,13.70
2022-11-16T03:30:52.541Z,14.63
2022-11-16T03:33:49.814Z,15.05
2022-11-16T03:36:23.446Z,13.50
2022-11-16T03:38:52.872Z,14.98
2022-11-16T03:41:22.896Z,14.68
2022-11-16T03:43:50.636Z,13.90
2022-11-16T03:46:19.909Z,12.95
2022-11-16T03:48:47.887Z,14.43
2022-11-16T03:51:17.621Z,13.52
2022-11-16T03:53:45.228Z,12.90
2022-11-16T03:56:13.062Z,13.47
2022-11-16T03:58:40.533Z,12.27
2022-11-16T04:01:08.099Z,14.48
2022-11-16T04:03:35.998Z,13.73
2022-11-16T04:06:22.751Z,14.35
2022-11-16T04:09:09.347Z,14.23
2022-11-16T04:11:56.775Z,15.10
2022-11-16T04:14:43.982Z,15.10
2022-11-16T04:17:31.783Z,14.35
2022-11-16T04:20:18.068Z,15.63
2022-11-16T04:23:15.693Z,14.00
2022-11-16T04:25:44.587Z,15.27
2022-11-16T04:28:13.916Z,17.05
2022-11-16T04:31:04.800Z,15.25
2022-11-16T04:33:53.724Z,15.45
2022-11-16T04:36:40.147Z,14.93
2022-11-16T04:39:07.885Z,15.10
2022-11-16T04:41:56.476Z,14.23
2022-11-16T04:44:29.750Z,13.32
2022-11-16T04:47:06.749Z,13.82
2022-11-16T04:49:34.576Z,13.00
2022-11-16T04:52:02.370Z,12.73
2022-11-16T04:54:30.473Z,12.27
2022-11-16T04:56:58.039Z,13.23
2022-11-16T04:59:25.925Z,12.73
2022-11-16T05:02:08.579Z,12.77
2022-11-16T05:04:38.432Z,12.50
2022-11-16T05:07:11.312Z,12.18
2022-11-16T05:09:45.385Z,12.55
2022-11-16T05:12:24.191Z,10.07
2022-11-16T05:14:52.847Z,11.07
2022-11-16T05:17:21.808Z,11.00
2022-11-16T05:20:08.518Z,10.15
2022-11-16T05:22:38.085Z,9.30
2022-11-16T05:25:07.508Z,9.30
2022-11-16T05:27:35.337Z,9.03
2022-11-16T05:30:05.042Z,9.85
2022-11-16T05:32:32.771Z,10.20
2022-11-16T05:35:00.480Z,9.90
2022-11-16T05:37:30.240Z,9.75
2022-11-16T05:39:57.891Z,10.00
2022-11-16T05:42:26.378Z,10.25
2022-11-16T05:44:54.368Z,10.00
2022-11-16T05:47:21.984Z,9.90
2022-11-16T05:49:50.173Z,9.95
2022-11-16T05:52:18.962Z,9.97
2022-11-16T05:54:46.597Z,10.88
2022-11-16T05:57:15.359Z,10.32
2022-11-16T05:59:43.264Z,9.38
2022-11-16T06:02:10.817Z,10.70
2022-11-16T06:04:44.135Z,10.37
2022-11-16T06:07:11.764Z,10.00
2022-11-16T06:09:39.599Z,10.25
2022-11-16T06:12:09.244Z,9.88
2022-11-16T06:14:36.848Z,10.27
2022-11-16T06:17:05.342Z,9.67
2022-11-16T06:19:35.036Z,10.02
2022-11-16T06:22:02.785Z,9.95
2022-11-16T06:24:30.940Z,11.02
2022-11-16T06:26:58.689Z,11.05
2022-11-16T06:29:26.740Z,12.07
2022-11-16T06:31:54.500Z,12.15
2022-11-16T06:34:22.817Z,12.40
2022-11-16T06:36:50.367Z,12.65
2022-11-16T06:39:18.935Z,16.75
2022-11-16T06:41:46.549Z,14.37
2022-11-16T06:44:14.165Z,12.65
2022-11-16T06:46:42.386Z,11.98
2022-11-16T06:49:09.945Z,11.23
2022-11-16T06:51:37.971Z,11.93
2022-11-16T06:54:06.303Z,12.33
2022-11-16T06:56:37.153Z,10.75
2022-11-16T06:59:05.098Z,10.98
2022-11-16T07:01:32.891Z,12.20
2022-11-16T07:04:00.582Z,12.30
2022-11-16T07:06:28.066Z,12.90
2022-11-16T07:08:56.551Z,13.68
2022-11-16T07:11:24.709Z,13.50
2022-11-16T07:13:52.251Z,12.82
2022-11-16T07:16:20.051Z,12.18
2022-11-16T07:18:50.700Z,11.90
2022-11-16T07:21:18.513Z,11.10
2022-11-16T07:23:46.388Z,13.10
2022-11-16T07:26:14.109Z,14.32
2022-11-16T07:28:47.741Z,12.95
2022-11-16T07:31:16.860Z,13.33
2022-11-16T07:33:44.443Z,12.43
2022-11-16T07:36:15.975Z,13.07
2022-11-16T07:38:44.310Z,12.45
2022-11-16T07:41:16.772Z,10.68
2022-11-16T07:43:51.522Z,11.53
2022-11-16T07:46:47.633Z,11.60
2022-11-16T07:49:15.202Z,13.15
2022-11-16T07:51:43.576Z,13.40
2022-11-16T07:54:15.268Z,14.13
2022-11-16T07:56:42.740Z,14.43
2022-11-16T07:59:11.027Z,14.77
2022-11-16T08:01:39.922Z,13.40
2022-11-16T08:04:08.243Z,14.00
2022-11-16T08:06:35.826Z,13.32
2022-11-16T08:09:04.011Z,12.90
2022-11-16T08:11:32.447Z,13.45
2022-11-16T08:14:00.069Z,11.63
2022-11-16T08:16:28.516Z,12.35
2022-11-16T08:18:57.318Z,13.62
2022-11-16T08:21:25.181Z,13.10
2022-11-16T08:23:58.120Z,12.35
2022-11-16T08:26:27.757Z,14.00
2022-11-16T08:28:56.671Z,12.95
2022-11-16T08:31:27.679Z,13.13
2022-11-16T08:33:59.973Z,14.23
2022-11-16T08:36:28.613Z,14.60
2022-11-16T08:38:56.250Z,13.73
2022-11-16T08:41:24.230Z,13.25
2022-11-16T08:43:53.445Z,13.65
2022-11-16T08:46:21.827Z,13.37
2022-11-16T08:48:54.374Z,13.52
2022-11-16T08:51:21.843Z,13.02
2022-11-16T08:53:50.260Z,13.45
2022-11-16T08:56:22.666Z,14.43
2022-11-16T08:58:58.206Z,13.07
2022-11-16T09:01:28.716Z,13.13
2022-11-16T09:03:57.018Z,13.48
2022-11-16T09:06:26.375Z,13.43
2022-11-16T09:08:54.839Z,13.35
2022-11-16T09:11:24.016Z,13.07
2022-11-16T09:13:53.217Z,13.18
2022-11-16T09:16:21.223Z,13.38
2022-11-16T09:18:50.835Z,11.68
2022-11-16T09:21:23.627Z,12.07
2022-11-16T09:23:52.749Z,11.83
2022-11-16T09:26:22.861Z,12.05
2022-11-16T09:28:58.396Z,13.77
2022-11-16T09:31:30.214Z,12.52
2022-11-16T09:33:58.866Z,12.75
2022-11-16T09:36:28.637Z,12.33
2022-11-16T09:39:19.417Z,12.23
2022-11-16T09:42:32.078Z,11.88
2022-11-16T09:45:08.380Z,10.98
2022-11-16T09:47:41.448Z,12.50
2022-11-16T09:50:35.800Z,13.23
2022-11-16T09:53:19.067Z,14.25
2022-11-16T09:55:58.753Z,12.75
2022-11-16T09:58:34.293Z,13.05
2022-11-16T10:01:06.629Z,11.98
2022-11-16T10:03:40.115Z,12.30
2022-11-16T10:06:22.720Z,12.23
2022-11-16T10:08:52.158Z,13.13
2022-11-16T10:11:49.204Z,12.60
2022-11-16T10:14:22.913Z,13.80
2022-11-16T10:16:55.804Z,12.20
2022-11-16T10:19:45.349Z,12.88
2022-11-16T10:22:22.498Z,12.70
2022-11-16T10:24:58.154Z,12.93
2022-11-16T10:27:38.213Z,12.63
2022-11-16T10:30:09.470Z,12.40
2022-11-16T10:32:59.434Z,12.93
2022-11-16T10:35:27.175Z,13.18
2022-11-16T10:37:55.759Z,12.90
2022-11-16T10:40:30.419Z,12.75
2022-11-16T10:43:04.346Z,13.13
2022-11-16T10:45:38.237Z,12.80
2022-11-16T10:48:19.857Z,14.63
2022-11-16T10:50:48.766Z,13.95
2022-11-16T10:53:31.974Z,14.63
2022-11-16T10:56:17.823Z,14.90
2022-11-16T10:58:54.007Z,14.13
2022-11-16T11:01:27.851Z,14.32
2022-11-16T11:03:55.806Z,15.63
2022-11-16T11:06:25.607Z,14.75
2022-11-16T11:08:53.110Z,15.20
2022-11-16T11:11:41.412Z,14.93
2022-11-16T11:14:14.920Z,14.27
2022-11-16T11:16:42.650Z,14.77
2022-11-16T11:19:25.463Z,14.80
2022-11-16T11:22:00.486Z,14.40
2022-11-16T11:24:45.274Z,15.50
2022-11-16T11:27:13.603Z,14.85
2022-11-16T11:29:43.099Z,13.93
2022-11-16T11:32:20.811Z,13.20
2022-11-16T11:35:00.442Z,13.33
2022-11-16T11:37:34.189Z,13.00
2022-11-16T11:40:28.654Z,14.75
2022-11-16T11:43:04.308Z,13.93
2022-11-16T11:45:36.312Z,14.00
2022-11-16T11:48:33.811Z,15.53
2022-11-16T11:51:10.640Z,14.10
2022-11-16T11:53:53.671Z,13.43
2022-11-16T11:56:21.562Z,13.30
2022-11-16T11:58:49.706Z,14.00
2022-11-16T12:01:35.670Z,13.67
2022-11-16T12:04:12.315Z,13.13
2022-11-16T12:07:01.659Z,14.18
2022-11-16T12:09:50.343Z,14.48
2022-11-16T12:12:27.936Z,13.80
2022-11-16T12:15:02.933Z,13.83
2022-11-16T12:17:49.267Z,13.90
2022-11-16T12:20:25.846Z,14.32
2022-11-16T12:22:53.260Z,14.82
2022-11-16T12:25:35.059Z,15.40
2022-11-16T12:28:08.810Z,14.60
2022-11-16T12:30:50.292Z,14.48
2022-11-16T12:33:40.201Z,13.70
2022-11-16T12:36:44.946Z,13.93
2022-11-16T12:39:23.356Z,13.93
2022-11-16T12:41:57.266Z,13.43
2022-11-16T12:44:33.801Z,13.23
2022-11-16T12:47:33.729Z,13.50
2022-11-16T12:50:08.399Z,12.73
2022-11-16T12:53:02.575Z,12.73
2022-11-16T12:55:51.995Z,12.30
2022-11-16T12:58:26.316Z,11.98
2022-11-16T13:01:02.620Z,11.57
2022-11-16T13:04:25.322Z,10.65
2022-11-16T13:06:57.337Z,13.85
2022-11-16T13:09:27.831Z,10.80
2022-11-16T13:12:01.729Z,9.50
2022-11-16T13:14:40.985Z,9.38
2022-11-16T13:17:14.348Z,9.18
2022-11-16T13:19:46.341Z,9.02
2022-11-16T13:22:23.029Z,8.40
2022-11-16T13:25:14.724Z,8.40
2022-11-16T13:27:50.051Z,7.62
2022-11-16T13:30:21.470Z,7.70
2022-11-16T13:33:13.749Z,7.60
2022-11-16T13:35:41.654Z,7.13
2022-11-16T13:38:12.509Z,6.57
2022-11-16T13:40:41.079Z,6.00
2022-11-16T13:43:11.917Z,5.90
2022-11-16T13:45:51.780Z,6.32
2022-11-16T13:48:23.780Z,5.60
2022-11-16T13:51:01.651Z,5.87
2022-11-16T13:54:25.241Z,5.90
2022-11-16T13:56:24.171Z,5.40
2022-11-16T13:58:58.302Z,4.80
2022-11-16T14:01:27.037Z,5.73
2022-11-16T14:04:33.953Z,5.20
2022-11-16T14:07:01.869Z,5.28
2022-11-16T14:09:43.618Z,5.50
2022-11-16T14:12:36.149Z,4.82
2022-11-16T14:15:22.030Z,5.13
2022-11-16T14:18:08.714Z,5.87
2022-11-16T14:20:43.635Z,5.40
2022-11-16T14:23:30.097Z,5.78
2022-11-16T14:26:16.330Z,5.60
2022-11-16T14:28:52.803Z,5.30
2022-11-16T14:31:31.605Z,4.85
2022-11-16T14:34:00.337Z,5.32
2022-11-16T14:36:36.013Z,4.93
2022-11-16T14:39:27.008Z,5.62
2022-11-16T14:41:57.773Z,5.70
2022-11-16T14:44:28.055Z,5.32
2022-11-16T14:46:56.521Z,6.80
2022-11-16T14:49:26.038Z,5.55
2022-11-16T14:51:56.210Z,5.78
2022-11-16T14:54:35.277Z,7.47
2022-11-16T14:57:07.869Z,5.95
2022-11-16T14:59:35.774Z,6.50
2022-11-16T15:02:18.283Z,5.35
2022-11-16T15:04:46.378Z,5.62
2022-11-16T15:07:15.396Z,5.50
2022-11-16T15:09:51.111Z,6.47
2022-11-16T15:12:39.446Z,6.15
2022-11-16T15:15:12.974Z,4.93
2022-11-16T15:18:00.663Z,5.40
2022-11-16T15:20:30.870Z,5.83
2022-11-16T15:22:59.732Z,6.03
2022-11-16T15:25:27.215Z,6.90
2022-11-16T15:27:55.900Z,6.93
2022-11-16T15:30:37.550Z,7.32
2022-11-16T15:33:16.678Z,7.53
2022-11-16T15:35:45.330Z,6.53
2022-11-16T15:38:27.427Z,6.65
2022-11-16T15:40:59.791Z,6.78
2022-11-16T15:43:45.136Z,6.80
2022-11-16T15:46:25.314Z,7.37
2022-11-16T15:48:53.804Z,7.30
2022-11-16T15:51:27.495Z,7.20
2022-11-16T15:53:55.770Z,7.20
2022-11-16T15:56:26.288Z,6.70
2022-11-16T15:58:57.987Z,7.47
2022-11-16T16:01:25.927Z,7.05
2022-11-16T16:04:00.909Z,7.75
2022-11-16T16:06:57.151Z,7.50
2022-11-16T16:09:24.996Z,7.10
2022-11-16T16:11:53.787Z,7.17
2022-11-16T16:14:24.394Z,6.90
2022-11-16T16:16:57.745Z,7.22
2022-11-16T16:19:40.663Z,7.82
2022-11-16T16:22:25.982Z,8.40
2022-11-16T16:24:53.806Z,7.93
2022-11-16T16:27:27.248Z,7.65
2022-11-16T16:29:57.276Z,9.18
2022-11-16T16:32:32.861Z,11.07
2022-11-16T16:35:02.698Z,10.60
2022-11-16T16:37:32.099Z,8.97
2022-11-16T16:40:00.367Z,9.13
2022-11-16T16:42:28.003Z,8.55
2022-11-16T16:44:59.267Z,7.93
2022-11-16T16:47:26.767Z,7.93
2022-11-16T16:49:54.421Z,8.70
2022-11-16T16:52:22.121Z,8.77
2022-11-16T16:54:49.660Z,8.02
2022-11-16T16:57:18.087Z,7.53
2022-11-16T16:59:48.217Z,7.45
2022-11-16T17:02:16.576Z,7.20
2022-11-16T17:04:46.424Z,7.72
2022-11-16T17:07:15.531Z,7.82
2022-11-16T17:09:43.633Z,7.28
2022-11-16T17:12:11.368Z,7.90
2022-11-16T17:14:39.065Z,7.27
2022-11-16T17:17:06.563Z,7.53
2022-11-16T17:19:34.345Z,7.20
2022-11-16T17:22:02.022Z,8.05
2022-11-16T17:24:29.481Z,8.35
2022-11-16T17:26:57.010Z,7.23
2022-11-16T17:29:24.826Z,7.85
2022-11-16T17:31:52.262Z,7.90
2022-11-16T17:34:19.803Z,7.90
2022-11-16T17:36:47.549Z,7.15
2022-11-16T17:39:16.121Z,7.27
2022-11-16T17:41:43.745Z,6.40
2022-11-16T17:44:11.525Z,5.53
2022-11-16T17:46:38.920Z,5.80
2022-11-16T17:49:06.374Z,5.68
2022-11-16T17:51:34.201Z,5.33
2022-11-16T17:54:01.815Z,5.62
2022-11-16T17:56:29.287Z,7.53
2022-11-16T17:58:58.475Z,7.20
2022-11-16T18:01:27.167Z,7.45
2022-11-16T18:03:55.151Z,7.57
2022-11-16T18:06:25.018Z,9.02
2022-11-16T18:08:53.230Z,8.32
2022-11-16T18:11:23.073Z,7.22
2022-11-16T18:13:55.380Z,7.28
2022-11-16T18:16:25.509Z,6.80
2022-11-16T18:19:01.313Z,7.40
2022-11-16T18:21:29.395Z,8.15
2022-11-16T18:23:59.032Z,8.80
2022-11-16T18:26:26.537Z,8.57
2022-11-16T18:28:54.374Z,6.83
2022-11-16T18:31:23.572Z,6.43
2022-11-16T18:33:51.575Z,6.93
2022-11-16T18:36:20.309Z,6.30
2022-11-16T18:38:47.902Z,5.82
2022-11-16T18:41:20.381Z,5.93
2022-11-16T18:43:51.128Z,6.07
2022-11-16T18:46:25.838Z,6.00
2022-11-16T18:48:54.890Z,6.22
2022-11-16T18:51:23.628Z,6.35
2022-11-16T18:53:51.160Z,6.87
2022-11-16T18:56:19.235Z,6.50
2022-11-16T18:58:51.426Z,7.40
2022-11-16T19:01:23.559Z,7.87
2022-11-16T19:03:52.592Z,8.65
2022-11-16T19:06:20.970Z,9.50
2022-11-16T19:08:55.774Z,9.18
2022-11-16T19:11:24.848Z,9.07
2022-11-16T19:13:54.305Z,8.75
2022-11-16T19:16:22.205Z,9.27
2022-11-16T19:18:50.726Z,9.00
2022-11-16T19:21:18.920Z,8.70
2022-11-16T19:23:50.985Z,8.20
2022-11-16T19:26:20.663Z,8.52
2022-11-16T19:28:49.416Z,8.93
2022-11-16T19:31:22.712Z,9.20
2022-11-16T19:33:58.665Z,8.27
2022-11-16T19:36:27.074Z,8.95
2022-11-16T19:38:54.858Z,8.70
2022-11-16T19:41:23.150Z,7.72
2022-11-16T19:43:59.540Z,9.83
2022-11-16T19:46:32.255Z,10.57
2022-11-16T19:49:00.390Z,10.57
2022-11-16T19:51:30.356Z,11.27
2022-11-16T19:53:59.966Z,10.15
2022-11-16T19:56:28.244Z,11.30
2022-11-16T19:58:55.780Z,8.75
2022-11-16T20:01:26.166Z,9.27
2022-11-16T20:03:56.704Z,10.00
2022-11-16T20:06:29.452Z,9.38
2022-11-16T20:09:01.008Z,8.73
2022-11-16T20:11:31.620Z,12.40
2022-11-16T20:13:59.835Z,11.98
2022-11-16T20:16:31.673Z,11.07
2022-11-16T20:19:01.883Z,10.73
2022-11-16T20:21:33.192Z,11.37
2022-11-16T20:24:06.086Z,11.55
2022-11-16T20:26:36.407Z,12.82
2022-11-16T20:29:04.262Z,12.93
2022-11-16T20:31:32.872Z,13.90
2022-11-16T20:34:05.118Z,15.30
2022-11-16T20:36:33.518Z,14.00
2022-11-16T20:39:01.458Z,14.25
2022-11-16T20:41:30.102Z,14.35
2022-11-16T20:43:59.239Z,14.70
2022-11-16T20:46:29.244Z,16.80
2022-11-16T20:48:59.336Z,17.62
2022-11-16T20:51:28.060Z,16.62
2022-11-16T20:53:55.724Z,16.50
2022-11-16T20:56:23.343Z,15.65
2022-11-16T20:58:51.170Z,16.37
2022-11-16T21:01:28.536Z,16.08
2022-11-16T21:04:00.885Z,16.45
2022-11-16T21:06:28.746Z,16.17
2022-11-16T21:08:56.836Z,15.90
2022-11-16T21:11:30.026Z,15.97
2022-11-16T21:14:16.019Z,15.85
2022-11-16T21:16:43.919Z,15.10
2022-11-16T21:19:12.077Z,15.18
2022-11-16T21:21:40.790Z,16.42
2022-11-16T21:24:09.324Z,14.73
2022-11-16T21:26:37.456Z,15.20
2022-11-16T21:29:05.354Z,15.00
2022-11-16T21:31:34.961Z,16.12
2022-11-16T21:34:02.876Z,16.10
2022-11-16T21:36:31.423Z,15.13
2022-11-16T21:38:59.374Z,16.67
2022-11-16T21:41:27.764Z,15.70
2022-11-16T21:43:55.331Z,15.93
2022-11-16T21:46:27.152Z,17.25
2022-11-16T21:48:56.662Z,16.27
2022-11-16T21:51:26.253Z,16.20
2022-11-16T21:53:54.284Z,16.48
2022-11-16T21:56:25.890Z,15.65
2022-11-16T21:58:54.113Z,16.65
2022-11-16T22:01:23.340Z,16.10
2022-11-16T22:04:11.207Z,16.70
2022-11-16T22:06:57.031Z,18.08
2022-11-16T22:09:24.721Z,17.27
2022-11-16T22:11:52.131Z,18.33
2022-11-16T22:14:19.541Z,18.03
2022-11-16T22:16:47.573Z,16.70
2022-11-16T22:19:15.198Z,15.93
2022-11-16T22:21:42.618Z,16.05
2022-11-16T22:24:10.272Z,15.50
2022-11-16T22:26:38.181Z,15.80
2022-11-16T22:29:05.575Z,16.35
2022-11-16T22:31:33.554Z,17.27
2022-11-16T22:34:00.914Z,16.95
2022-11-16T22:36:28.325Z,15.70
2022-11-16T22:38:57.101Z,14.90
2022-11-16T22:41:24.521Z,15.57
2022-11-16T22:43:52.036Z,17.33
2022-11-16T22:46:19.721Z,16.83
2022-11-16T22:48:47.972Z,16.90
2022-11-16T22:51:21.330Z,16.00
2022-11-16T22:54:00.238Z,17.17
2022-11-16T22:56:28.863Z,17.65
2022-11-16T22:58:57.236Z,15.70
2022-11-16T23:01:24.808Z,15.98
2022-11-16T23:03:52.506Z,15.77
2022-11-16T23:06:20.264Z,16.23
2022-11-16T23:08:47.704Z,17.35
2022-11-16T23:11:35.684Z,16.95
2022-11-16T23:14:23.502Z,17.40
2022-11-16T23:16:51.739Z,15.83
2022-11-16T23:19:39.734Z,17.48
2022-11-16T23:22:28.581Z,16.90
2022-11-16T23:25:14.836Z,18.20
2022-11-16T23:28:03.489Z,18.00
2022-11-16T23:30:31.182Z,17.33
2022-11-16T23:32:58.672Z,17.60
2022-11-16T23:35:26.167Z,18.73
2022-11-16T23:37:57.530Z,19.35
2022-11-16T23:40:35.762Z,20.08
2022-11-16T23:43:22.577Z,19.73
2022-11-16T23:45:50.674Z,19.17
2022-11-16T23:48:18.850Z,19.70
2022-11-16T23:50:46.361Z,20.00
2022-11-16T23:53:14.180Z,19.58
2022-11-16T23:55:42.094Z,20.97
2022-11-16T23:58:14.602Z,18.70
